createdAt,value
2018-01-10T00:00:25.161Z,8.46
2018-01-10T00:01:25.148Z,8.39
2018-01-10T00:02:25.143Z,8.49
2018-01-10T00:03:25.133Z,8.32
2018-01-10T00:04:25.126Z,8.39
2018-01-10T00:05:25.121Z,8.37
2018-01-10T00:06:25.109Z,8.42
2018-01-10T00:07:25.105Z,8.41
2018-01-10T00:08:25.097Z,8.35
2018-01-10T00:09:25.088Z,8.49
2018-01-10T00:09:37.088Z,8.34
2018-01-10T00:11:25.079Z,8.38
2018-01-10T00:12:25.068Z,8.34
2018-01-10T00:13:25.057Z,8.32
2018-01-10T00:14:25.049Z,8.34
2018-01-10T00:15:25.043Z,8.31
2018-01-10T00:16:25.029Z,8.34
2018-01-10T00:17:25.025Z,8.32
2018-01-10T00:18:25.019Z,8.35
2018-01-10T00:19:25.013Z,8.42
2018-01-10T00:20:25.007Z,8.44
2018-01-10T00:21:25.004Z,8.42
2018-01-10T00:22:24.994Z,8.35
2018-01-10T00:23:24.984Z,8.35
2018-01-10T00:24:24.976Z,8.44
2018-01-10T00:25:24.981Z,8.37
2018-01-10T00:26:24.958Z,8.37
2018-01-10T00:27:24.954Z,8.29
2018-01-10T00:28:24.950Z,8.37
2018-01-10T00:29:24.938Z,8.47
2018-01-10T00:30:24.932Z,8.37
2018-01-10T00:31:24.922Z,8.53
2018-01-10T00:32:24.911Z,8.44
2018-01-10T00:33:24.909Z,8.46
2018-01-10T00:34:24.901Z,8.47
2018-01-10T00:35:24.894Z,8.49
2018-01-10T00:36:24.891Z,8.49
2018-01-10T00:37:24.877Z,8.39
2018-01-10T00:38:24.866Z,8.41
2018-01-10T00:39:24.851Z,8.42
2018-01-10T00:40:24.849Z,8.42
2018-01-10T00:41:24.847Z,8.46
2018-01-10T00:42:24.839Z,8.49
2018-01-10T00:43:24.820Z,8.42
2018-01-10T00:44:24.823Z,8.42
2018-01-10T00:45:24.817Z,8.56
2018-01-10T00:46:24.808Z,8.56
2018-01-10T00:47:24.800Z,8.50
2018-01-10T00:48:24.802Z,8.49
2018-01-10T00:49:24.787Z,8.50
2018-01-10T00:50:24.781Z,8.53
2018-01-10T00:51:24.774Z,8.52
2018-01-10T00:52:24.758Z,8.44
2018-01-10T00:53:24.752Z,8.49
2018-01-10T00:54:24.763Z,8.52
2018-01-10T00:55:24.740Z,8.50
2018-01-10T00:56:24.731Z,8.41
2018-01-10T00:57:25.442Z,8.53
2018-01-10T00:58:24.717Z,8.42
2018-01-10T00:59:24.712Z,8.47
2018-01-10T01:00:24.700Z,8.41
2018-01-10T01:01:24.692Z,8.46
2018-01-10T01:02:24.689Z,8.42
2018-01-10T01:03:24.694Z,8.41
2018-01-10T01:04:24.673Z,8.44
2018-01-10T01:05:24.668Z,8.42
2018-01-10T01:06:24.664Z,8.39
2018-01-10T01:07:24.652Z,8.50
2018-01-10T01:08:24.634Z,8.52
2018-01-10T01:09:24.632Z,8.39
2018-01-10T01:10:24.627Z,8.41
2018-01-10T01:11:24.618Z,8.42
2018-01-10T01:12:24.611Z,8.41
2018-01-10T01:13:24.602Z,8.49
2018-01-10T01:14:24.595Z,8.57
2018-01-10T01:15:24.589Z,8.55
2018-01-10T01:16:24.581Z,8.53
2018-01-10T01:17:24.576Z,8.57
2018-01-10T01:18:24.567Z,8.55
2018-01-10T01:19:24.564Z,8.56
2018-01-10T01:20:24.550Z,8.56
2018-01-10T01:21:24.552Z,8.55
2018-01-10T01:22:24.535Z,8.56
2018-01-10T01:23:24.523Z,8.55
2018-01-10T01:24:24.521Z,8.56
2018-01-10T01:25:24.516Z,8.53
2018-01-10T01:26:24.505Z,8.53
2018-01-10T01:27:24.498Z,8.56
2018-01-10T01:28:24.487Z,8.52
2018-01-10T01:29:24.492Z,8.50
2018-01-10T01:30:24.473Z,8.44
2018-01-10T01:31:24.470Z,8.57
2018-01-10T01:32:24.464Z,8.55
2018-01-10T01:33:24.454Z,8.52
2018-01-10T01:34:24.451Z,8.44
2018-01-10T01:35:24.433Z,8.46
2018-01-10T01:36:24.434Z,8.42
2018-01-10T01:37:24.423Z,8.49
2018-01-10T01:38:24.412Z,8.42
2018-01-10T01:39:24.408Z,8.46
2018-01-10T01:40:24.400Z,8.47
2018-01-10T01:41:24.395Z,8.42
2018-01-10T01:42:24.392Z,8.41
2018-01-10T01:43:24.376Z,8.46
2018-01-10T01:44:24.376Z,8.44
2018-01-10T01:45:24.363Z,8.41
2018-01-10T01:46:24.359Z,8.55
2018-01-10T01:47:24.358Z,8.50
2018-01-10T01:48:24.351Z,8.52
2018-01-10T01:49:24.331Z,8.56
2018-01-10T01:50:24.325Z,8.55
2018-01-10T01:51:24.320Z,8.55
2018-01-10T01:52:24.324Z,8.56
2018-01-10T01:53:24.305Z,8.53
2018-01-10T01:54:24.295Z,8.55
2018-01-10T01:55:24.294Z,8.56
2018-01-10T01:56:24.280Z,8.57
2018-01-10T01:57:24.269Z,8.56
2018-01-10T01:58:24.274Z,8.57
2018-01-10T01:59:24.263Z,8.60
2018-01-10T02:00:24.252Z,8.60
2018-01-10T02:01:24.240Z,8.65
2018-01-10T02:02:24.233Z,8.60
2018-01-10T02:03:24.232Z,8.55
2018-01-10T02:04:24.218Z,8.56
2018-01-10T02:05:24.207Z,8.71
2018-01-10T02:06:24.207Z,8.68
2018-01-10T02:07:24.200Z,8.70
2018-01-10T02:08:24.194Z,8.65
2018-01-10T02:09:24.189Z,8.72
2018-01-10T02:10:24.180Z,8.68
2018-01-10T02:11:24.173Z,8.67
2018-01-10T02:12:24.162Z,8.74
2018-01-10T02:13:24.156Z,8.74
2018-01-10T02:14:24.152Z,8.75
2018-01-10T02:15:24.143Z,8.80
2018-01-10T02:16:24.139Z,8.72
2018-01-10T02:17:24.130Z,8.75
2018-01-10T02:18:24.121Z,8.74
2018-01-10T02:19:24.115Z,8.72
2018-01-10T02:20:24.106Z,8.77
2018-01-10T02:21:24.094Z,8.77
2018-01-10T02:22:24.090Z,8.74
2018-01-10T02:23:24.084Z,8.77
2018-01-10T02:24:26.974Z,8.78
2018-01-10T02:25:24.066Z,8.78
2018-01-10T02:26:24.062Z,8.80
2018-01-10T02:27:24.058Z,8.83
2018-01-10T02:28:24.045Z,8.77
2018-01-10T02:29:24.038Z,8.68
2018-01-10T02:30:24.035Z,8.72
2018-01-10T02:31:24.034Z,8.74
2018-01-10T02:32:24.013Z,8.78
2018-01-10T02:33:24.009Z,8.70
2018-01-10T02:34:24.005Z,8.75
2018-01-10T02:35:23.997Z,8.80
2018-01-10T02:36:23.989Z,8.83
2018-01-10T02:37:23.981Z,8.70
2018-01-10T02:38:23.970Z,8.80
2018-01-10T02:39:23.970Z,8.80
2018-01-10T02:40:23.959Z,8.72
2018-01-10T02:41:23.958Z,8.74
2018-01-10T02:42:23.945Z,8.68
2018-01-10T02:43:23.935Z,8.77
2018-01-10T02:44:23.938Z,8.77
2018-01-10T02:45:23.923Z,8.78
2018-01-10T02:46:23.914Z,8.80
2018-01-10T02:47:23.911Z,8.74
2018-01-10T02:48:23.905Z,8.77
2018-01-10T02:49:23.910Z,8.83
2018-01-10T02:50:23.889Z,8.70
2018-01-10T02:50:35.886Z,8.71
2018-01-10T02:52:23.875Z,8.75
2018-01-10T02:53:23.870Z,8.80
2018-01-10T02:54:23.869Z,8.78
2018-01-10T02:55:23.855Z,8.77
2018-01-10T02:56:23.851Z,8.74
2018-01-10T02:57:23.844Z,8.77
2018-01-10T02:58:23.827Z,8.77
2018-01-10T02:59:24.492Z,8.78
2018-01-10T03:00:23.808Z,8.80
2018-01-10T03:01:23.807Z,8.78
2018-01-10T03:02:23.802Z,8.80
2018-01-10T03:03:23.799Z,8.83
2018-01-10T03:04:23.787Z,8.83
2018-01-10T03:05:23.780Z,8.77
2018-01-10T03:06:23.770Z,8.78
2018-01-10T03:07:23.764Z,8.81
2018-01-10T03:08:23.751Z,8.81
2018-01-10T03:09:23.763Z,8.83
2018-01-10T03:10:23.745Z,8.80
2018-01-10T03:11:23.738Z,8.81
2018-01-10T03:12:23.731Z,8.83
2018-01-10T03:13:23.731Z,8.83
2018-01-10T03:14:23.713Z,8.83
2018-01-10T03:15:23.715Z,8.83
2018-01-10T03:16:23.701Z,8.88
2018-01-10T03:17:23.693Z,8.80
2018-01-10T03:18:23.685Z,8.86
2018-01-10T03:19:23.679Z,8.85
2018-01-10T03:20:23.665Z,8.86
2018-01-10T03:21:23.665Z,8.83
2018-01-10T03:22:23.660Z,8.83
2018-01-10T03:23:23.652Z,8.86
2018-01-10T03:24:23.644Z,8.85
2018-01-10T03:25:23.641Z,8.78
2018-01-10T03:26:23.631Z,8.81
2018-01-10T03:27:23.626Z,8.88
2018-01-10T03:28:23.613Z,8.85
2018-01-10T03:29:23.614Z,8.88
2018-01-10T03:30:23.603Z,8.85
2018-01-10T03:31:23.593Z,8.81
2018-01-10T03:32:23.591Z,8.85
2018-01-10T03:33:23.577Z,8.85
2018-01-10T03:34:23.569Z,8.85
2018-01-10T03:35:23.561Z,8.80
2018-01-10T03:36:23.556Z,8.81
2018-01-10T03:37:23.548Z,8.86
2018-01-10T03:38:23.545Z,8.80
2018-01-10T03:39:23.536Z,8.85
2018-01-10T03:40:23.526Z,8.83
2018-01-10T03:41:23.522Z,8.88
2018-01-10T03:42:23.520Z,8.80
2018-01-10T03:43:23.512Z,8.85
2018-01-10T03:44:23.499Z,8.86
2018-01-10T03:45:23.493Z,8.81
2018-01-10T03:46:23.488Z,8.78
2018-01-10T03:47:23.479Z,8.86
2018-01-10T03:48:23.471Z,8.81
2018-01-10T03:49:23.468Z,8.85
2018-01-10T03:50:23.463Z,8.85
2018-01-10T03:51:23.460Z,8.78
2018-01-10T03:52:23.444Z,8.77
2018-01-10T03:53:23.438Z,8.99
2018-01-10T03:54:23.427Z,8.96
2018-01-10T03:55:23.425Z,8.81
2018-01-10T03:56:23.417Z,8.92
2018-01-10T03:57:23.407Z,8.92
2018-01-10T03:58:23.397Z,8.95
2018-01-10T03:59:23.394Z,8.92
2018-01-10T04:00:23.383Z,8.92
2018-01-10T04:01:23.378Z,8.93
2018-01-10T04:02:23.380Z,8.98
2018-01-10T04:03:23.366Z,8.90
2018-01-10T04:04:23.361Z,8.96
2018-01-10T04:05:23.356Z,8.92
2018-01-10T04:06:23.350Z,8.93
2018-01-10T04:07:23.338Z,8.90
2018-01-10T04:08:23.330Z,9.01
2018-01-10T04:09:24.016Z,8.95
2018-01-10T04:10:23.322Z,8.95
2018-01-10T04:11:23.311Z,8.95
2018-01-10T04:12:23.302Z,8.93
2018-01-10T04:13:23.292Z,8.95
2018-01-10T04:14:23.275Z,8.89
2018-01-10T04:15:23.272Z,8.96
2018-01-10T04:16:23.269Z,8.95
2018-01-10T04:17:23.265Z,8.96
2018-01-10T04:18:23.262Z,8.80
2018-01-10T04:19:23.251Z,8.89
2018-01-10T04:20:23.236Z,8.92
2018-01-10T04:21:23.236Z,8.99
2018-01-10T04:22:23.223Z,8.92
2018-01-10T04:23:23.225Z,8.89
2018-01-10T04:24:23.210Z,8.90
2018-01-10T04:25:23.219Z,8.98
2018-01-10T04:26:23.206Z,9.03
2018-01-10T04:27:23.194Z,8.95
2018-01-10T04:28:23.188Z,8.99
2018-01-10T04:29:23.170Z,8.93
2018-01-10T04:30:23.166Z,9.01
2018-01-10T04:31:23.164Z,9.03
2018-01-10T04:32:23.155Z,8.95
2018-01-10T04:33:23.147Z,8.98
2018-01-10T04:34:23.142Z,8.98
2018-01-10T04:35:23.135Z,9.01
2018-01-10T04:36:23.126Z,9.01
2018-01-10T04:37:23.123Z,8.98
2018-01-10T04:38:23.113Z,8.98
2018-01-10T04:39:23.111Z,8.98
2018-01-10T04:40:23.104Z,8.98
2018-01-10T04:41:23.097Z,8.98
2018-01-10T04:42:23.090Z,9.03
2018-01-10T04:43:23.071Z,9.01
2018-01-10T04:44:23.074Z,8.98
2018-01-10T04:45:23.063Z,8.98
2018-01-10T04:46:23.056Z,8.98
2018-01-10T04:47:23.051Z,8.95
2018-01-10T04:48:23.053Z,8.98
2018-01-10T04:49:23.037Z,8.98
2018-01-10T04:50:23.032Z,8.96
2018-01-10T04:51:23.023Z,8.95
2018-01-10T04:52:23.023Z,8.96
2018-01-10T04:53:22.999Z,8.96
2018-01-10T04:54:23.009Z,8.93
2018-01-10T04:55:22.991Z,8.98
2018-01-10T04:56:22.985Z,8.95
2018-01-10T04:57:22.976Z,9.01
2018-01-10T04:58:22.970Z,9.01
2018-01-10T04:59:22.963Z,9.01
2018-01-10T05:00:22.955Z,9.03
2018-01-10T05:01:22.955Z,8.96
2018-01-10T05:02:22.946Z,8.96
2018-01-10T05:03:22.932Z,8.98
2018-01-10T05:04:22.926Z,9.01
2018-01-10T05:05:22.924Z,8.99
2018-01-10T05:06:22.915Z,8.96
2018-01-10T05:07:22.910Z,8.96
2018-01-10T05:08:22.905Z,8.90
2018-01-10T05:09:22.892Z,8.96
2018-01-10T05:10:22.884Z,9.04
2018-01-10T05:11:22.877Z,8.92
2018-01-10T05:12:22.872Z,8.96
2018-01-10T05:13:22.863Z,8.98
2018-01-10T05:14:22.858Z,8.99
2018-01-10T05:15:22.849Z,9.03
2018-01-10T05:16:22.850Z,9.01
2018-01-10T05:17:22.841Z,8.96
2018-01-10T05:18:22.835Z,8.95
2018-01-10T05:19:22.822Z,8.99
2018-01-10T05:20:22.816Z,8.95
2018-01-10T05:21:22.816Z,8.95
2018-01-10T05:22:22.802Z,9.01
2018-01-10T05:23:22.794Z,8.98
2018-01-10T05:24:22.785Z,9.01
2018-01-10T05:25:22.782Z,8.98
2018-01-10T05:26:23.538Z,9.03
2018-01-10T05:27:23.532Z,9.04
2018-01-10T05:28:22.764Z,8.98
2018-01-10T05:29:22.750Z,8.85
2018-01-10T05:30:22.749Z,8.95
2018-01-10T05:31:22.735Z,8.89
2018-01-10T05:32:22.728Z,8.95
2018-01-10T05:33:22.716Z,8.92
2018-01-10T05:34:22.726Z,8.93
2018-01-10T05:35:22.710Z,8.98
2018-01-10T05:36:22.711Z,8.96
2018-01-10T05:37:22.692Z,8.98
2018-01-10T05:38:22.688Z,8.96
2018-01-10T05:39:22.700Z,8.98
2018-01-10T05:40:22.689Z,8.98
2018-01-10T05:41:22.664Z,8.98
2018-01-10T05:42:22.656Z,8.98
2018-01-10T05:43:22.649Z,8.93
2018-01-10T05:44:22.642Z,8.95
2018-01-10T05:45:22.635Z,8.96
2018-01-10T05:46:22.627Z,8.99
2018-01-10T05:47:22.620Z,8.90
2018-01-10T05:48:22.614Z,8.93
2018-01-10T05:49:22.611Z,8.89
2018-01-10T05:50:22.601Z,8.90
2018-01-10T05:51:22.597Z,8.85
2018-01-10T05:52:22.591Z,8.88
2018-01-10T05:53:22.610Z,8.98
2018-01-10T05:54:22.576Z,8.96
2018-01-10T05:55:22.603Z,8.78
2018-01-10T05:56:22.573Z,8.98
2018-01-10T05:57:22.580Z,8.85
2018-01-10T05:58:22.542Z,8.83
2018-01-10T05:59:22.537Z,8.83
2018-01-10T06:00:22.521Z,8.83
2018-01-10T06:01:22.512Z,8.83
2018-01-10T06:02:22.509Z,8.83
2018-01-10T06:03:22.513Z,8.85
2018-01-10T06:04:22.501Z,8.80
2018-01-10T06:05:22.495Z,8.80
2018-01-10T06:06:22.493Z,8.72
2018-01-10T06:07:22.482Z,8.77
2018-01-10T06:08:22.475Z,8.77
2018-01-10T06:09:22.471Z,8.77
2018-01-10T06:10:22.458Z,8.83
2018-01-10T06:11:22.455Z,8.68
2018-01-10T06:12:22.445Z,8.65
2018-01-10T06:13:22.434Z,8.72
2018-01-10T06:14:22.433Z,8.72
2018-01-10T06:15:22.424Z,8.55
2018-01-10T06:16:22.414Z,8.62
2018-01-10T06:17:22.407Z,8.55
2018-01-10T06:18:22.396Z,8.57
2018-01-10T06:19:22.394Z,8.56
2018-01-10T06:20:22.386Z,8.52
2018-01-10T06:21:22.389Z,8.55
2018-01-10T06:22:22.376Z,8.53
2018-01-10T06:23:22.370Z,8.56
2018-01-10T06:24:22.349Z,8.55
2018-01-10T06:25:22.346Z,8.52
2018-01-10T06:26:22.370Z,8.55
2018-01-10T06:27:22.335Z,8.55
2018-01-10T06:28:22.331Z,8.53
2018-01-10T06:29:22.318Z,8.52
2018-01-10T06:30:22.312Z,8.55
2018-01-10T06:31:22.309Z,8.50
2018-01-10T06:32:25.062Z,8.53
2018-01-10T06:33:22.295Z,8.50
2018-01-10T06:34:22.283Z,8.41
2018-01-10T06:35:22.275Z,8.42
2018-01-10T06:36:22.280Z,8.47
2018-01-10T06:37:22.259Z,8.47
2018-01-10T06:38:22.260Z,8.49
2018-01-10T06:39:22.285Z,8.50
2018-01-10T06:40:22.272Z,8.49
2018-01-10T06:41:22.245Z,8.47
2018-01-10T06:42:22.227Z,8.46
2018-01-10T06:43:22.229Z,8.52
2018-01-10T06:44:22.216Z,8.42
2018-01-10T06:45:22.197Z,8.41
2018-01-10T06:46:22.200Z,8.46
2018-01-10T06:47:22.189Z,8.57
2018-01-10T06:48:22.180Z,8.60
2018-01-10T06:49:22.181Z,8.53
2018-01-10T06:50:22.163Z,8.59
2018-01-10T06:51:22.156Z,8.56
2018-01-10T06:52:22.153Z,8.56
2018-01-10T06:53:22.139Z,8.57
2018-01-10T06:54:22.146Z,8.49
2018-01-10T06:55:22.129Z,8.53
2018-01-10T06:56:22.124Z,8.52
2018-01-10T06:57:22.123Z,8.53
2018-01-10T06:58:22.105Z,8.55
2018-01-10T06:59:22.104Z,8.57
2018-01-10T07:00:22.088Z,8.71
2018-01-10T07:01:22.090Z,8.75
2018-01-10T07:02:22.072Z,8.74
2018-01-10T07:03:22.076Z,8.77
2018-01-10T07:04:22.067Z,8.77
2018-01-10T07:05:22.063Z,8.77
2018-01-10T07:06:22.055Z,8.86
2018-01-10T07:07:22.041Z,8.83
2018-01-10T07:08:22.035Z,8.81
2018-01-10T07:09:22.064Z,8.85
2018-01-10T07:10:22.018Z,8.86
2018-01-10T07:11:22.009Z,8.83
2018-01-10T07:12:22.010Z,8.78
2018-01-10T07:13:21.992Z,8.92
2018-01-10T07:14:21.988Z,8.95
2018-01-10T07:15:22.582Z,8.93
2018-01-10T07:16:21.971Z,8.81
2018-01-10T07:17:21.964Z,8.93
2018-01-10T07:18:21.975Z,8.95
2018-01-10T07:19:22.581Z,8.92
2018-01-10T07:20:21.944Z,8.89
2018-01-10T07:21:24.593Z,8.93
2018-01-10T07:22:21.928Z,8.81
2018-01-10T07:23:21.927Z,8.89
2018-01-10T07:24:21.917Z,8.92
2018-01-10T07:25:21.911Z,8.96
2018-01-10T07:26:21.902Z,8.99
2018-01-10T07:27:21.904Z,9.01
2018-01-10T07:28:21.879Z,8.98
2018-01-10T07:29:28.588Z,8.92
2018-01-10T07:30:22.589Z,8.88
2018-01-10T07:31:22.589Z,8.81
2018-01-10T07:32:21.856Z,8.92
2018-01-10T07:33:21.859Z,8.98
2018-01-10T07:34:21.859Z,8.95
2018-01-10T07:35:21.832Z,8.85
2018-01-10T07:36:21.837Z,8.93
2018-01-10T07:37:21.827Z,8.88
2018-01-10T07:38:21.808Z,8.96
2018-01-10T07:39:21.810Z,8.99
2018-01-10T07:40:21.800Z,9.03
2018-01-10T07:41:21.795Z,8.96
2018-01-10T07:42:21.784Z,8.96
2018-01-10T07:43:21.783Z,8.96
2018-01-10T07:44:21.775Z,8.96
2018-01-10T07:45:21.762Z,8.98
2018-01-10T07:46:21.752Z,8.99
2018-01-10T07:47:21.740Z,8.98
2018-01-10T07:48:21.751Z,9.03
2018-01-10T07:49:22.597Z,8.93
2018-01-10T07:50:21.729Z,8.96
2018-01-10T07:51:21.725Z,8.95
2018-01-10T07:52:21.713Z,8.93
2018-01-10T07:53:21.708Z,8.96
2018-01-10T07:54:21.706Z,9.01
2018-01-10T07:55:21.690Z,8.98
2018-01-10T07:56:21.688Z,8.98
2018-01-10T07:57:21.671Z,9.04
2018-01-10T07:58:21.672Z,8.93
2018-01-10T07:59:21.666Z,8.95
2018-01-10T08:00:21.656Z,8.98
2018-01-10T08:01:21.654Z,9.01
2018-01-10T08:02:21.647Z,9.01
2018-01-10T08:03:21.634Z,8.93
2018-01-10T08:04:21.628Z,9.01
2018-01-10T08:05:21.617Z,9.04
2018-01-10T08:06:21.612Z,8.96
2018-01-10T08:07:21.607Z,8.96
2018-01-10T08:08:21.603Z,8.93
2018-01-10T08:09:21.587Z,9.06
2018-01-10T08:10:21.586Z,8.93
2018-01-10T08:11:21.591Z,9.04
2018-01-10T08:12:21.583Z,9.06
2018-01-10T08:13:21.562Z,8.96
2018-01-10T08:14:21.558Z,9.08
2018-01-10T08:15:21.549Z,9.03
2018-01-10T08:16:21.541Z,8.99
2018-01-10T08:17:21.528Z,8.99
2018-01-10T08:18:21.528Z,9.03
2018-01-10T08:19:21.518Z,9.08
2018-01-10T08:20:21.513Z,9.12
2018-01-10T08:21:21.505Z,9.12
2018-01-10T08:22:21.492Z,9.12
2018-01-10T08:23:21.525Z,9.14
2018-01-10T08:24:21.484Z,9.08
2018-01-10T08:25:21.471Z,9.12
2018-01-10T08:26:21.467Z,9.18
2018-01-10T08:27:21.460Z,9.11
2018-01-10T08:28:21.452Z,9.16
2018-01-10T08:29:21.444Z,9.26
2018-01-10T08:30:21.447Z,9.27
2018-01-10T08:31:21.437Z,9.30
2018-01-10T08:32:21.428Z,9.14
2018-01-10T08:33:21.418Z,9.19
2018-01-10T08:34:21.414Z,9.14
2018-01-10T08:35:21.408Z,9.19
2018-01-10T08:36:21.402Z,9.22
2018-01-10T08:37:21.389Z,9.18
2018-01-10T08:38:21.382Z,9.27
2018-01-10T08:39:21.375Z,9.30
2018-01-10T08:40:21.365Z,9.23
2018-01-10T08:41:21.356Z,9.22
2018-01-10T08:42:21.355Z,9.26
2018-01-10T08:43:21.353Z,9.16
2018-01-10T08:44:21.345Z,9.26
2018-01-10T08:45:21.338Z,9.26
2018-01-10T08:46:21.332Z,9.26
2018-01-10T08:47:21.328Z,9.24
2018-01-10T08:48:21.309Z,9.30
2018-01-10T08:49:21.304Z,9.26
2018-01-10T08:50:21.302Z,9.29
2018-01-10T08:51:21.297Z,9.24
2018-01-10T08:52:21.287Z,9.29
2018-01-10T08:53:21.285Z,9.23
2018-01-10T08:54:21.282Z,9.27
2018-01-10T08:55:21.261Z,9.23
2018-01-10T08:56:21.257Z,9.30
2018-01-10T08:57:21.254Z,9.30
2018-01-10T08:58:21.243Z,9.30
2018-01-10T08:59:21.240Z,9.36
2018-01-10T09:00:21.228Z,9.30
2018-01-10T09:01:21.230Z,9.29
2018-01-10T09:02:21.219Z,9.33
2018-01-10T09:03:21.209Z,9.26
2018-01-10T09:04:21.206Z,9.34
2018-01-10T09:05:21.192Z,9.34
2018-01-10T09:06:21.186Z,9.41
2018-01-10T09:07:21.181Z,9.34
2018-01-10T09:08:21.179Z,9.44
2018-01-10T09:09:21.168Z,9.37
2018-01-10T09:10:21.164Z,9.51
2018-01-10T09:11:21.158Z,9.44
2018-01-10T09:12:21.153Z,9.48
2018-01-10T09:13:21.139Z,9.51
2018-01-10T09:14:21.134Z,9.51
2018-01-10T09:15:21.128Z,9.54
2018-01-10T09:16:21.124Z,9.52
2018-01-10T09:17:21.132Z,9.52
2018-01-10T09:18:21.103Z,9.50
2018-01-10T09:19:21.098Z,9.47
2018-01-10T09:20:21.094Z,9.45
2018-01-10T09:21:21.091Z,9.59
2018-01-10T09:22:21.077Z,9.50
2018-01-10T09:23:21.066Z,9.52
2018-01-10T09:24:21.062Z,9.50
2018-01-10T09:25:21.054Z,9.47
2018-01-10T09:26:21.052Z,9.50
2018-01-10T09:27:21.042Z,9.57
2018-01-10T09:28:21.040Z,9.52
2018-01-10T09:29:21.044Z,9.45
2018-01-10T09:30:21.021Z,9.50
2018-01-10T09:31:21.021Z,9.55
2018-01-10T09:32:21.009Z,9.52
2018-01-10T09:33:20.994Z,9.50
2018-01-10T09:34:20.990Z,9.52
2018-01-10T09:35:20.989Z,9.52
2018-01-10T09:36:20.979Z,9.60
2018-01-10T09:37:20.968Z,9.59
2018-01-10T09:38:21.629Z,9.65
2018-01-10T09:39:20.964Z,9.62
2018-01-10T09:40:20.951Z,9.67
2018-01-10T09:41:20.954Z,9.72
2018-01-10T09:42:28.735Z,9.75
2018-01-10T09:45:14.067Z,9.77
2018-01-10T09:46:13.097Z,9.85
2018-01-10T09:48:58.485Z,9.94
2018-01-10T09:49:58.398Z,9.96
2018-01-10T09:52:43.756Z,10.03
2018-01-10T09:53:34.971Z,10.09
2018-01-10T09:56:19.370Z,10.12
2018-01-10T09:57:19.320Z,10.18
2018-01-10T10:00:03.713Z,10.21
2018-01-10T10:01:03.687Z,10.27
2018-01-10T10:03:48.058Z,10.36
2018-01-10T10:04:48.040Z,10.41
2018-01-10T10:07:32.410Z,10.35
2018-01-10T10:08:32.389Z,10.41
2018-01-10T10:11:15.796Z,10.41
2018-01-10T10:12:16.341Z,10.39
2018-01-10T10:15:00.173Z,10.35
2018-01-10T10:16:00.131Z,10.36
2018-01-10T10:18:44.496Z,10.36
2018-01-10T10:19:44.480Z,10.36
2018-01-10T10:22:28.848Z,10.42
2018-01-10T10:23:28.812Z,10.36
2018-01-10T10:26:12.223Z,10.38
2018-01-10T10:27:12.190Z,10.35
2018-01-10T10:29:56.575Z,10.57
2018-01-10T10:30:56.550Z,10.55
2018-01-10T10:33:40.924Z,10.58
2018-01-10T10:34:40.897Z,10.60
2018-01-10T10:37:25.421Z,10.60
2018-01-10T10:38:25.237Z,10.54
2018-01-10T10:41:08.644Z,10.54
2018-01-10T10:42:08.633Z,10.54
2018-01-10T10:44:52.993Z,10.52
2018-01-10T10:45:52.962Z,10.54
2018-01-10T10:48:36.509Z,10.46
2018-01-10T10:49:36.345Z,10.45
2018-01-10T10:52:21.617Z,10.34
2018-01-10T10:53:21.586Z,10.39
2018-01-10T10:56:06.186Z,10.52
2018-01-10T10:57:05.918Z,10.55
2018-01-10T10:59:49.338Z,10.60
2018-01-10T11:00:49.271Z,10.64
2018-01-10T11:03:33.665Z,10.68
2018-01-10T11:04:33.646Z,10.68
2018-01-10T11:05:33.614Z,10.68
2018-01-10T11:06:33.619Z,10.72
2018-01-10T11:07:33.624Z,10.73
2018-01-10T11:08:33.603Z,10.67
2018-01-10T11:09:33.601Z,10.70
2018-01-10T11:10:33.590Z,10.73
2018-01-10T11:11:33.607Z,10.72
2018-01-10T11:12:33.707Z,10.72
2018-01-10T11:13:33.568Z,10.73
2018-01-10T11:14:33.571Z,10.73
2018-01-10T11:15:33.558Z,10.70
2018-01-10T11:16:33.558Z,10.62
2018-01-10T11:17:33.560Z,10.70
2018-01-10T11:18:33.552Z,10.73
2018-01-10T11:19:33.549Z,10.68
2018-01-10T11:20:33.534Z,10.76
2018-01-10T11:21:33.524Z,10.68
2018-01-10T11:22:33.567Z,10.60
2018-01-10T11:23:33.519Z,10.62
2018-01-10T11:24:33.514Z,10.57
2018-01-10T11:25:33.501Z,10.54
2018-01-10T11:26:33.493Z,10.52
2018-01-10T11:27:33.493Z,10.39
2018-01-10T11:28:33.489Z,10.34
2018-01-10T11:29:33.480Z,10.38
2018-01-10T11:30:33.479Z,10.27
2018-01-10T11:31:33.480Z,10.24
2018-01-10T11:32:33.465Z,10.23
2018-01-10T11:33:33.459Z,10.23
2018-01-10T11:34:33.454Z,10.17
2018-01-10T11:35:33.446Z,10.17
2018-01-10T11:36:33.444Z,10.18
2018-01-10T11:37:33.436Z,10.14
2018-01-10T11:38:34.214Z,10.05
2018-01-10T11:39:33.421Z,10.09
2018-01-10T11:40:33.428Z,10.08
2018-01-10T11:41:33.411Z,10.03
2018-01-10T11:42:33.403Z,10.09
2018-01-10T11:43:33.399Z,10.16
2018-01-10T11:44:33.402Z,10.08
2018-01-10T11:45:33.389Z,10.17
2018-01-10T11:46:33.385Z,10.16
2018-01-10T11:47:33.374Z,10.18
2018-01-10T11:48:33.366Z,10.17
2018-01-10T11:49:33.365Z,10.23
2018-01-10T11:50:33.358Z,10.23
2018-01-10T11:51:33.354Z,10.23
2018-01-10T11:52:33.342Z,10.26
2018-01-10T11:53:33.338Z,10.31
2018-01-10T11:54:33.332Z,10.39
2018-01-10T11:55:33.322Z,10.39
2018-01-10T11:56:33.326Z,10.35
2018-01-10T11:57:33.317Z,10.26
2018-01-10T11:58:33.307Z,10.31
2018-01-10T11:59:33.305Z,10.36
2018-01-10T12:00:33.290Z,10.39
2018-01-10T12:01:33.300Z,10.36
2018-01-10T12:02:33.286Z,10.38
2018-01-10T12:03:33.280Z,10.43
2018-01-10T12:04:33.277Z,10.46
2018-01-10T12:05:33.270Z,10.42
2018-01-10T12:06:33.265Z,10.45
2018-01-10T12:07:33.259Z,10.52
2018-01-10T12:08:33.244Z,10.39
2018-01-10T12:09:33.253Z,10.38
2018-01-10T12:10:33.243Z,10.41
2018-01-10T12:11:33.235Z,10.41
2018-01-10T12:12:33.232Z,10.42
2018-01-10T12:13:33.231Z,10.42
2018-01-10T12:14:33.220Z,10.31
2018-01-10T12:15:33.214Z,10.39
2018-01-10T12:16:33.207Z,10.45
2018-01-10T12:17:33.209Z,10.39
2018-01-10T12:18:33.196Z,10.46
2018-01-10T12:19:33.189Z,10.52
2018-01-10T12:20:33.189Z,10.54
2018-01-10T12:21:33.172Z,10.48
2018-01-10T12:22:33.171Z,10.46
2018-01-10T12:23:33.166Z,10.58
2018-01-10T12:24:33.160Z,10.48
2018-01-10T12:25:33.158Z,10.48
2018-01-10T12:26:33.154Z,10.57
2018-01-10T12:27:33.156Z,10.46
2018-01-10T12:28:33.138Z,10.61
2018-01-10T12:29:33.137Z,10.65
2018-01-10T12:30:33.137Z,10.67
2018-01-10T12:31:33.126Z,10.68
2018-01-10T12:32:33.121Z,10.58
2018-01-10T12:33:33.110Z,10.73
2018-01-10T12:34:33.114Z,10.73
2018-01-10T12:35:33.111Z,10.72
2018-01-10T12:36:33.095Z,10.68
2018-01-10T12:37:33.091Z,10.75
2018-01-10T12:38:33.081Z,10.72
2018-01-10T12:39:33.078Z,10.78
2018-01-10T12:40:33.070Z,10.79
2018-01-10T12:41:33.064Z,10.79
2018-01-10T12:42:33.061Z,10.90
2018-01-10T12:43:33.056Z,10.91
2018-01-10T12:44:33.051Z,10.91
2018-01-10T12:45:33.047Z,10.93
2018-01-10T12:46:33.037Z,11.00
2018-01-10T12:47:33.039Z,11.03
2018-01-10T12:48:33.048Z,11.00
2018-01-10T12:49:33.023Z,11.05
2018-01-10T12:50:33.017Z,11.13
2018-01-10T12:51:33.011Z,11.09
2018-01-10T12:52:33.004Z,11.16
2018-01-10T12:53:32.993Z,11.23
2018-01-10T12:54:33.008Z,11.23
2018-01-10T12:55:32.990Z,11.22
2018-01-10T12:56:32.981Z,11.25
2018-01-10T12:57:32.983Z,11.28
2018-01-10T12:58:32.980Z,11.37
2018-01-10T12:59:32.992Z,11.30
2018-01-10T13:00:32.967Z,11.27
2018-01-10T13:01:32.965Z,11.27
2018-01-10T13:02:32.959Z,11.23
2018-01-10T13:03:32.955Z,11.27
2018-01-10T13:04:32.943Z,11.25
2018-01-10T13:05:32.940Z,11.33
2018-01-10T13:06:32.929Z,11.30
2018-01-10T13:07:32.932Z,11.22
2018-01-10T13:08:32.922Z,11.22
2018-01-10T13:09:32.963Z,11.27
2018-01-10T13:10:32.909Z,11.22
2018-01-10T13:11:32.920Z,11.30
2018-01-10T13:12:32.900Z,11.31
2018-01-10T13:13:32.897Z,11.19
2018-01-10T13:14:33.753Z,11.19
2018-01-10T13:15:32.893Z,11.23
2018-01-10T13:16:32.884Z,11.22
2018-01-10T13:17:32.875Z,11.18
2018-01-10T13:18:32.862Z,11.20
2018-01-10T13:19:32.864Z,11.27
2018-01-10T13:20:32.853Z,11.25
2018-01-10T13:21:32.857Z,11.27
2018-01-10T13:22:32.858Z,11.20
2018-01-10T13:23:32.845Z,11.22
2018-01-10T13:24:33.755Z,11.25
2018-01-10T13:25:32.830Z,11.22
2018-01-10T13:26:32.832Z,11.25
2018-01-10T13:27:32.825Z,11.23
2018-01-10T13:28:32.837Z,11.18
2018-01-10T13:29:32.809Z,11.20
2018-01-10T13:30:32.818Z,11.22
2018-01-10T13:31:32.823Z,11.22
2018-01-10T13:32:32.801Z,11.23
2018-01-10T13:33:32.783Z,11.19
2018-01-10T13:34:32.783Z,11.22
2018-01-10T13:35:32.776Z,11.18
2018-01-10T13:36:33.761Z,11.12
2018-01-10T13:37:32.770Z,11.13
2018-01-10T13:38:32.770Z,11.15
2018-01-10T13:39:32.763Z,11.20
2018-01-10T13:40:32.755Z,11.30
2018-01-10T13:41:32.757Z,11.22
2018-01-10T13:42:32.744Z,11.30
2018-01-10T13:43:32.738Z,11.16
2018-01-10T13:44:32.759Z,11.15
2018-01-10T13:45:32.747Z,11.11
2018-01-10T13:46:32.741Z,11.25
2018-01-10T13:47:32.710Z,11.12
2018-01-10T13:48:32.739Z,11.09
2018-01-10T13:49:32.765Z,11.13